Camp Springs, Maryland
Current Conditions -  °F | °C
As of 3:58 PM on Tuesday 21 Oct 2014 (Local Time) from KADW Reporting Station
Broken Clouds Broken Clouds  
Wind Chill: 67°   Ceiling: 5500
Heat Index: 67°   Visibility: 10mi
Dew Point: 48°   Wind: 2mph
Humidity: 52%   Direction: 340°NNW
Pressure: 29.8"   Gusts: NA
Location:  38.8182°N, 76.9414°W
Report Text: KADW 211958Z AUTO 34002KT 10SM BKN055 19/09 A2980 RMK AO2 SLP097 T01930091 $
Loading
Personal Weather Stations






























Interactive Weather Map
Tropical Storm Tracking
New forecast layout! Learn more

10-Day Weather Forecast

Advertisements
Track Severe Weather on mobile